Archival Weather

Komakuk Beach

Komakuk Beach, Canada (CWKM)

Report from: Saturday, April 1, 2023 4:00 AM UTC
Current time: Monday, June 17, 2024 11:36 AM UTC

Current weather – Weather history – Daily summaries
Weather forecast

Present weatherSM
Temperature-18.0°C (-0.4°F)
Wind chill-31.3°C (-24.3°F)
Dew point-20.0°C (-4.0°F)
Winds 21 kts (10.8 m/s, 24.2 mph) East (100°)
Visibility0 ft. (0 m)
Clouds Sky clear
Altimeter29.82 in.Hg (1010 mB)
Relative humidity84 %
Density altitude-4,062 ft. (-1,238 m)
Remarks Fully automated report
No clouds detected
Flight conditions Low Instrument Meteorological Conditions
Raw dataCWKM 010400Z AUTO 10021KT ////SM NCD M18/M20 A2982
An error has occurred. This application may no longer respond until reloaded. Reload 🗙